createdAt,value
2022-08-31T00:02:37.405Z,5.13
2022-08-31T00:05:46.007Z,5.90
2022-08-31T00:08:54.782Z,5.90
2022-08-31T00:12:05.496Z,5.93
2022-08-31T00:15:18.566Z,5.97
2022-08-31T00:18:27.941Z,5.67
2022-08-31T00:21:36.111Z,5.60
2022-08-31T00:24:44.378Z,6.20
2022-08-31T00:27:55.646Z,6.27
2022-08-31T00:31:04.055Z,5.60
2022-08-31T00:34:13.395Z,5.77
2022-08-31T00:37:21.857Z,5.97
2022-08-31T00:40:30.274Z,5.83
2022-08-31T00:43:48.302Z,6.07
2022-08-31T00:46:56.672Z,5.40
2022-08-31T00:50:10.104Z,5.10
2022-08-31T00:53:19.010Z,5.77
2022-08-31T00:56:31.388Z,5.10
2022-08-31T00:59:43.731Z,5.50
2022-08-31T01:02:52.935Z,5.43
2022-08-31T01:06:01.631Z,6.10
2022-08-31T01:09:11.388Z,5.70
2022-08-31T01:12:20.617Z,5.70
2022-08-31T01:15:33.175Z,5.50
2022-08-31T01:18:44.138Z,5.67
2022-08-31T01:22:03.293Z,5.20
2022-08-31T01:25:15.900Z,5.40
2022-08-31T01:28:24.653Z,5.57
2022-08-31T01:31:36.961Z,5.50
2022-08-31T01:39:57.138Z,5.13
2022-08-31T01:43:06.867Z,5.47
2022-08-31T01:46:17.304Z,5.70
2022-08-31T01:49:26.193Z,6.17
2022-08-31T01:52:35.114Z,5.63
2022-08-31T01:55:43.676Z,6.53
2022-08-31T01:58:54.083Z,6.23
2022-08-31T02:02:42.097Z,6.33
2022-08-31T02:09:01.475Z,5.70
2022-08-31T02:12:09.770Z,5.43
2022-08-31T02:15:22.662Z,5.80
2022-08-31T02:18:31.327Z,5.97
2022-08-31T02:21:40.089Z,5.37
2022-08-31T02:24:48.864Z,6.33
2022-08-31T02:27:58.268Z,5.17
2022-08-31T02:31:08.368Z,6.03
2022-08-31T02:34:27.151Z,5.67
2022-08-31T02:37:35.325Z,6.60
2022-08-31T02:40:43.996Z,7.13
2022-08-31T02:43:53.703Z,7.80
2022-08-31T02:47:04.481Z,6.53
2022-08-31T02:50:22.168Z,6.43
2022-08-31T02:53:30.554Z,6.90
2022-08-31T02:56:39.210Z,6.50
2022-08-31T02:59:47.695Z,6.97
2022-08-31T03:02:57.763Z,6.80
2022-08-31T03:06:06.679Z,7.07
2022-08-31T03:09:15.787Z,7.97
2022-08-31T03:12:24.106Z,7.13
2022-08-31T03:15:32.933Z,6.57
2022-08-31T03:18:46.163Z,7.40
2022-08-31T03:21:56.219Z,6.37
2022-08-31T03:25:07.896Z,6.80
2022-08-31T03:28:16.965Z,6.80
2022-08-31T03:31:41.188Z,6.57
2022-08-31T03:34:56.197Z,7.07
2022-08-31T03:38:05.484Z,6.70
2022-08-31T03:41:16.880Z,7.67
2022-08-31T03:44:25.878Z,7.30
2022-08-31T03:47:37.027Z,7.53
2022-08-31T03:50:55.276Z,7.50
2022-08-31T03:54:07.438Z,8.17
2022-08-31T03:57:15.932Z,8.27
2022-08-31T04:00:25.271Z,7.90
2022-08-31T04:03:41.504Z,6.83
2022-08-31T04:07:09.544Z,7.80
2022-08-31T04:10:41.041Z,7.53
2022-08-31T04:14:08.487Z,7.73
2022-08-31T04:17:39.576Z,7.73
2022-08-31T04:21:15.608Z,8.40
2022-08-31T04:24:25.275Z,7.63
2022-08-31T04:27:33.541Z,7.67
2022-08-31T04:30:44.059Z,7.57
2022-08-31T04:33:57.351Z,7.33
2022-08-31T04:37:08.822Z,7.20
2022-08-31T04:40:20.302Z,6.80
2022-08-31T04:43:34.101Z,7.27
2022-08-31T04:46:43.197Z,6.73
2022-08-31T04:49:52.035Z,7.37
2022-08-31T04:53:03.751Z,7.73
2022-08-31T04:56:18.742Z,7.63
2022-08-31T04:59:27.683Z,8.33
2022-08-31T05:02:55.465Z,7.77
2022-08-31T05:06:04.286Z,7.03
2022-08-31T05:09:18.009Z,7.50
2022-08-31T05:12:32.390Z,7.17
2022-08-31T05:15:43.781Z,7.07
2022-08-31T05:19:00.575Z,6.63
2022-08-31T05:22:08.874Z,7.23
2022-08-31T05:25:19.892Z,7.93
2022-08-31T05:28:33.398Z,6.97
2022-08-31T05:31:42.952Z,7.83
2022-08-31T05:34:52.111Z,7.60
2022-08-31T05:38:00.289Z,6.90
2022-08-31T05:41:10.533Z,7.57
2022-08-31T05:44:22.807Z,7.53
2022-08-31T05:47:34.877Z,7.40
2022-08-31T05:50:43.683Z,8.23
2022-08-31T05:53:53.294Z,6.63
2022-08-31T05:57:01.936Z,7.80
2022-08-31T06:00:13.673Z,8.30
2022-08-31T06:03:25.187Z,8.17
2022-08-31T06:06:35.278Z,7.90
2022-08-31T06:09:43.419Z,8.37
2022-08-31T06:12:53.078Z,8.03
2022-08-31T06:16:04.910Z,7.80
2022-08-31T06:19:15.352Z,8.27
2022-08-31T06:22:26.835Z,8.17
2022-08-31T06:25:37.636Z,9.63
2022-08-31T06:28:48.449Z,7.57
2022-08-31T06:31:58.270Z,7.23
2022-08-31T06:35:07.991Z,8.43
2022-08-31T06:38:36.354Z,7.90
2022-08-31T06:42:22.745Z,7.30
2022-08-31T06:46:05.599Z,6.50
2022-08-31T06:49:15.744Z,7.00
2022-08-31T06:52:24.162Z,7.23
2022-08-31T06:55:58.578Z,16.87
2022-08-31T06:59:28.547Z,14.60
2022-08-31T07:02:53.472Z,11.53
2022-08-31T07:06:12.111Z,14.80
2022-08-31T07:09:20.707Z,13.20
2022-08-31T07:12:29.075Z,11.23
2022-08-31T07:15:37.447Z,10.83
2022-08-31T07:18:47.308Z,9.70
2022-08-31T07:22:00.637Z,8.83
2022-08-31T07:25:11.031Z,9.03
2022-08-31T07:28:19.194Z,9.03
2022-08-31T07:31:37.610Z,8.20
2022-08-31T07:34:46.105Z,8.67
2022-08-31T07:38:33.300Z,8.70
2022-08-31T07:41:59.510Z,9.17
2022-08-31T07:45:14.099Z,9.07
2022-08-31T07:48:22.505Z,8.37
2022-08-31T07:51:51.528Z,7.57
2022-08-31T07:55:11.902Z,8.30
2022-08-31T07:58:42.676Z,7.40
2022-08-31T08:01:55.961Z,9.03
2022-08-31T08:05:07.786Z,7.57
2022-08-31T08:08:41.297Z,8.50
2022-08-31T08:12:01.914Z,8.10
2022-08-31T08:15:22.098Z,7.90
2022-08-31T08:18:46.762Z,7.70
2022-08-31T08:21:58.902Z,7.93
2022-08-31T08:25:13.362Z,7.23
2022-08-31T08:28:46.492Z,7.00
2022-08-31T08:31:56.198Z,7.70
2022-08-31T08:35:07.158Z,7.33
2022-08-31T08:38:16.349Z,6.83
2022-08-31T08:41:28.628Z,7.23
2022-08-31T08:44:39.016Z,7.37
2022-08-31T08:47:49.988Z,7.27
2022-08-31T08:51:03.514Z,6.50
2022-08-31T08:54:36.370Z,6.53
2022-08-31T08:57:50.007Z,7.67
2022-08-31T09:01:05.398Z,7.67
2022-08-31T09:04:31.744Z,6.87
2022-08-31T09:08:29.048Z,7.20
2022-08-31T09:11:55.117Z,6.80
2022-08-31T09:15:37.634Z,5.97
2022-08-31T09:19:00.012Z,6.10
2022-08-31T09:22:08.229Z,6.17
2022-08-31T09:25:20.209Z,6.40
2022-08-31T09:28:47.200Z,6.93
2022-08-31T09:32:06.272Z,6.60
2022-08-31T09:35:29.998Z,6.43
2022-08-31T09:38:40.228Z,5.73
2022-08-31T09:41:51.063Z,6.17
2022-08-31T09:45:03.899Z,6.53
2022-08-31T09:48:12.043Z,6.07
2022-08-31T09:51:29.115Z,6.53
2022-08-31T09:54:55.246Z,6.37
2022-08-31T09:58:07.814Z,6.67
2022-08-31T10:01:27.655Z,5.90
2022-08-31T10:08:22.031Z,7.30
2022-08-31T10:11:35.136Z,6.67
2022-08-31T10:14:51.356Z,7.50
2022-08-31T10:18:14.192Z,7.37
2022-08-31T10:21:31.068Z,7.77
2022-08-31T10:24:47.170Z,7.60
2022-08-31T10:28:06.308Z,9.03
2022-08-31T10:31:23.873Z,8.63
2022-08-31T10:34:55.463Z,9.07
2022-08-31T10:38:21.356Z,9.33
2022-08-31T10:41:44.296Z,10.53
2022-08-31T10:45:00.626Z,9.67
2022-08-31T10:48:13.162Z,10.90
2022-08-31T10:51:35.571Z,9.10
2022-08-31T10:55:01.121Z,10.13
2022-08-31T10:58:27.135Z,11.73
2022-08-31T11:01:49.240Z,11.20
2022-08-31T11:05:18.885Z,11.10
2022-08-31T11:08:49.934Z,12.60
2022-08-31T11:12:08.975Z,11.33
2022-08-31T11:15:51.825Z,10.73
2022-08-31T11:19:43.393Z,10.57
2022-08-31T11:23:22.759Z,10.60
2022-08-31T11:26:51.001Z,10.00
2022-08-31T11:30:08.066Z,9.50
2022-08-31T11:33:28.047Z,10.00
2022-08-31T11:36:51.159Z,9.53
2022-08-31T11:40:00.385Z,9.20
2022-08-31T11:43:14.129Z,9.43
2022-08-31T11:47:05.839Z,9.80
2022-08-31T11:51:07.199Z,9.63
2022-08-31T11:54:59.732Z,9.70
2022-08-31T11:58:34.565Z,9.53
2022-08-31T12:01:45.045Z,8.63
2022-08-31T12:05:02.655Z,7.47
2022-08-31T12:08:15.249Z,7.17
2022-08-31T12:11:41.848Z,6.70
2022-08-31T12:15:06.092Z,7.97
2022-08-31T12:18:38.557Z,6.17
2022-08-31T12:22:18.206Z,6.33
2022-08-31T12:25:36.413Z,6.87
2022-08-31T12:29:16.164Z,5.97
2022-08-31T12:32:32.694Z,6.40
2022-08-31T12:35:41.093Z,6.33
2022-08-31T12:39:08.988Z,6.80
2022-08-31T12:42:17.556Z,6.40
2022-08-31T12:46:04.784Z,6.33
2022-08-31T12:49:52.689Z,7.00
2022-08-31T12:53:46.652Z,7.50
2022-08-31T12:57:06.550Z,8.33
2022-08-31T13:00:33.705Z,7.70
2022-08-31T13:03:47.936Z,7.50
2022-08-31T13:07:16.451Z,7.00
2022-08-31T13:10:35.469Z,7.23
2022-08-31T13:13:43.846Z,7.17
2022-08-31T13:17:01.690Z,6.73
2022-08-31T13:20:12.408Z,6.47
2022-08-31T13:23:30.977Z,7.03
2022-08-31T13:26:39.479Z,7.00
2022-08-31T13:29:50.112Z,7.10
2022-08-31T13:32:59.765Z,7.50
2022-08-31T13:36:31.701Z,6.67
2022-08-31T13:39:46.114Z,7.03
2022-08-31T13:42:59.585Z,6.70
2022-08-31T13:46:07.917Z,6.90
2022-08-31T13:49:36.022Z,7.07
2022-08-31T13:53:09.712Z,6.67
2022-08-31T13:56:56.207Z,6.77
2022-08-31T14:00:33.570Z,6.67
2022-08-31T14:03:58.066Z,7.00
2022-08-31T14:07:08.344Z,6.90
2022-08-31T14:10:22.449Z,7.60
2022-08-31T14:13:35.460Z,6.63
2022-08-31T14:16:52.414Z,7.23
2022-08-31T14:20:33.976Z,6.63
2022-08-31T14:23:43.457Z,8.00
2022-08-31T14:26:52.292Z,6.97
2022-08-31T14:30:02.515Z,8.20
2022-08-31T14:33:16.764Z,8.10
2022-08-31T14:36:27.885Z,8.33
2022-08-31T14:39:39.540Z,8.57
2022-08-31T14:42:48.297Z,8.37
2022-08-31T14:45:57.464Z,8.37
2022-08-31T14:49:08.268Z,8.87
2022-08-31T14:52:18.615Z,8.87
2022-08-31T14:55:29.939Z,8.90
2022-08-31T14:58:41.146Z,8.57
2022-08-31T15:01:50.961Z,9.83
2022-08-31T15:05:06.473Z,8.70
2022-08-31T15:08:26.245Z,9.50
2022-08-31T15:11:47.152Z,9.47
2022-08-31T15:14:58.906Z,9.27
2022-08-31T15:18:07.297Z,9.47
2022-08-31T15:21:16.721Z,9.83
2022-08-31T15:24:28.187Z,10.87
2022-08-31T15:27:37.293Z,9.90
2022-08-31T15:30:45.488Z,9.10
2022-08-31T15:33:57.525Z,7.80
2022-08-31T15:37:08.587Z,5.90
2022-08-31T15:40:18.235Z,6.20
2022-08-31T15:43:26.547Z,6.60
2022-08-31T15:46:52.448Z,6.27
2022-08-31T15:50:06.565Z,6.27
2022-08-31T15:53:16.764Z,5.37
2022-08-31T15:56:26.800Z,5.77
2022-08-31T15:59:35.635Z,5.73
2022-08-31T16:02:45.810Z,5.27
2022-08-31T16:05:54.152Z,5.90
2022-08-31T16:09:04.624Z,6.00
2022-08-31T16:12:15.978Z,5.43
2022-08-31T16:15:25.166Z,5.87
2022-08-31T16:18:33.714Z,5.70
2022-08-31T16:21:45.671Z,5.20
2022-08-31T16:24:54.951Z,5.83
2022-08-31T16:28:06.294Z,4.90
2022-08-31T16:31:15.734Z,5.77
2022-08-31T16:34:24.526Z,5.83
2022-08-31T16:37:33.271Z,6.20
2022-08-31T16:40:42.524Z,6.20
2022-08-31T16:44:16.029Z,5.93
2022-08-31T16:47:21.694Z,6.20
2022-08-31T16:50:29.529Z,6.00
2022-08-31T16:53:39.413Z,6.27
2022-08-31T16:56:51.250Z,6.13
2022-08-31T17:00:04.730Z,6.33
2022-08-31T17:03:12.938Z,6.53
2022-08-31T17:06:23.358Z,6.30
2022-08-31T17:09:31.878Z,6.33
2022-08-31T17:12:42.089Z,6.33
2022-08-31T17:15:51.859Z,6.13
2022-08-31T17:19:02.139Z,5.80
2022-08-31T17:22:21.408Z,5.80
2022-08-31T17:25:37.146Z,6.63
2022-08-31T17:28:47.355Z,6.07
2022-08-31T17:31:56.996Z,6.50
2022-08-31T17:35:07.733Z,6.67
2022-08-31T17:38:17.018Z,7.03
2022-08-31T17:41:26.734Z,7.95
2022-08-31T17:44:35.072Z,6.27
2022-08-31T17:47:44.711Z,6.10
2022-08-31T17:50:52.943Z,6.03
2022-08-31T17:54:05.033Z,6.47
2022-08-31T17:57:16.997Z,6.47
2022-08-31T18:00:25.880Z,6.97
2022-08-31T18:03:36.698Z,6.43
2022-08-31T18:06:46.823Z,6.73
2022-08-31T18:09:55.393Z,6.80
2022-08-31T18:13:04.269Z,7.00
2022-08-31T18:16:14.718Z,6.60
2022-08-31T18:19:28.183Z,5.83
2022-08-31T18:22:37.145Z,6.63
2022-08-31T18:25:45.872Z,6.57
2022-08-31T18:28:55.575Z,6.67
2022-08-31T18:32:10.340Z,6.23
2022-08-31T18:35:20.536Z,6.50
2022-08-31T18:38:29.293Z,6.40
2022-08-31T18:41:56.024Z,6.47
2022-08-31T18:45:18.728Z,5.37
2022-08-31T18:48:28.691Z,6.57
2022-08-31T18:51:38.999Z,5.93
2022-08-31T18:54:49.180Z,6.67
2022-08-31T18:57:57.753Z,6.67
2022-08-31T19:01:10.583Z,6.20
2022-08-31T19:04:22.041Z,6.97
2022-08-31T19:07:32.124Z,6.70
2022-08-31T19:10:43.667Z,7.33
2022-08-31T19:13:53.573Z,7.37
2022-08-31T19:17:03.968Z,7.77
2022-08-31T19:20:14.975Z,8.50
2022-08-31T19:23:25.314Z,7.87
2022-08-31T19:26:37.359Z,8.03
2022-08-31T19:29:46.172Z,8.23
2022-08-31T19:32:56.292Z,8.73
2022-08-31T19:36:05.927Z,9.00
2022-08-31T19:39:20.256Z,9.63
2022-08-31T19:46:09.643Z,9.03
2022-08-31T19:49:19.678Z,9.87
2022-08-31T19:52:28.382Z,10.10
2022-08-31T19:55:38.375Z,10.50
2022-08-31T19:58:48.438Z,9.83
2022-08-31T20:01:59.611Z,10.43
2022-08-31T20:05:09.388Z,10.13
2022-08-31T20:08:18.852Z,10.83
2022-08-31T20:11:31.608Z,10.13
2022-08-31T20:14:40.090Z,10.57
2022-08-31T20:17:49.473Z,9.90
2022-08-31T20:21:01.039Z,10.43
2022-08-31T20:24:13.209Z,10.77
2022-08-31T20:27:22.899Z,10.27
2022-08-31T20:30:38.390Z,9.17
2022-08-31T20:33:48.184Z,10.07
2022-08-31T20:37:01.226Z,10.20
2022-08-31T20:40:16.408Z,11.40
2022-08-31T20:43:27.142Z,10.03
2022-08-31T20:46:53.408Z,10.57
2022-08-31T20:50:07.220Z,10.47
2022-08-31T20:53:17.086Z,10.13
2022-08-31T20:56:33.408Z,10.67
2022-08-31T20:59:43.002Z,10.40
2022-08-31T21:02:52.554Z,10.20
2022-08-31T21:06:03.696Z,10.40
2022-08-31T21:09:12.016Z,10.17
2022-08-31T21:12:21.055Z,10.70
2022-08-31T21:15:32.849Z,9.70
2022-08-31T21:18:42.171Z,10.90
2022-08-31T21:21:53.661Z,9.87
2022-08-31T21:25:04.504Z,10.00
2022-08-31T21:28:17.042Z,10.90
2022-08-31T21:31:29.408Z,10.80
2022-08-31T21:34:39.002Z,10.67
2022-08-31T21:37:47.775Z,10.23
2022-08-31T21:40:57.010Z,10.43
2022-08-31T21:44:07.183Z,10.77
2022-08-31T21:47:16.963Z,11.93
2022-08-31T21:50:28.233Z,11.00
2022-08-31T21:53:37.448Z,11.97
2022-08-31T21:56:48.245Z,11.53
2022-08-31T21:59:56.665Z,12.07
2022-08-31T22:03:07.993Z,11.37
2022-08-31T22:06:26.888Z,11.60
2022-08-31T22:09:37.720Z,11.63
2022-08-31T22:12:47.417Z,11.33
2022-08-31T22:15:56.609Z,11.37
2022-08-31T22:19:13.254Z,11.40
2022-08-31T22:22:23.476Z,11.17
2022-08-31T22:25:33.475Z,11.27
2022-08-31T22:28:43.752Z,10.63
2022-08-31T22:31:55.591Z,10.93
2022-08-31T22:35:06.263Z,11.47
2022-08-31T22:38:19.085Z,11.27
2022-08-31T22:41:27.669Z,10.50
2022-08-31T22:44:37.858Z,10.73
2022-08-31T22:47:50.062Z,11.43
2022-08-31T22:51:05.308Z,9.57
2022-08-31T22:54:15.027Z,9.87
2022-08-31T22:57:23.139Z,10.27
2022-08-31T23:00:34.780Z,10.20
2022-08-31T23:03:42.937Z,10.87
2022-08-31T23:06:56.233Z,11.67
2022-08-31T23:10:09.064Z,11.00
2022-08-31T23:13:17.797Z,10.43
2022-08-31T23:16:30.166Z,10.37
2022-08-31T23:19:42.291Z,11.20
2022-08-31T23:22:55.981Z,11.17
2022-08-31T23:26:09.701Z,11.67
2022-08-31T23:29:19.867Z,11.33
2022-08-31T23:32:32.167Z,11.10
2022-08-31T23:35:41.075Z,12.93
2022-08-31T23:38:50.841Z,11.00
2022-08-31T23:41:59.172Z,12.97
2022-08-31T23:45:10.078Z,13.33
2022-08-31T23:48:20.313Z,13.70
2022-08-31T23:51:31.916Z,12.43
2022-08-31T23:54:42.082Z,13.00
2022-08-31T23:57:55.115Z,13.60
